sensor_id;sensor_type;location;lat;lon;timestamp;P1;durP1;ratioP1;P2;durP2;ratioP2
33644;SDS011;19986;48.190;16.366;2023-04-30T00:02:00;41.45;;;39.30;;
33644;SDS011;19986;48.190;16.366;2023-04-30T00:04:26;44.22;;;41.72;;
33644;SDS011;19986;48.190;16.366;2023-04-30T00:06:51;44.67;;;42.38;;
33644;SDS011;19986;48.190;16.366;2023-04-30T00:09:17;46.20;;;43.80;;
33644;SDS011;19986;48.190;16.366;2023-04-30T00:11:43;46.05;;;43.38;;
33644;SDS011;19986;48.190;16.366;2023-04-30T00:14:09;40.78;;;38.67;;
33644;SDS011;19986;48.190;16.366;2023-04-30T00:16:35;45.80;;;43.40;;
33644;SDS011;19986;48.190;16.366;2023-04-30T00:19:01;42.08;;;39.88;;
33644;SDS011;19986;48.190;16.366;2023-04-30T00:21:27;42.72;;;40.45;;
33644;SDS011;19986;48.190;16.366;2023-04-30T00:23:52;42.47;;;40.35;;
33644;SDS011;19986;48.190;16.366;2023-04-30T00:26:18;42.50;;;40.33;;
33644;SDS011;19986;48.190;16.366;2023-04-30T00:28:44;42.10;;;39.70;;
33644;SDS011;19986;48.190;16.366;2023-04-30T00:31:10;42.20;;;40.00;;
33644;SDS011;19986;48.190;16.366;2023-04-30T00:33:36;41.67;;;39.47;;
33644;SDS011;19986;48.190;16.366;2023-04-30T00:36:02;41.95;;;39.75;;
33644;SDS011;19986;48.190;16.366;2023-04-30T00:38:28;42.33;;;40.03;;
33644;SDS011;19986;48.190;16.366;2023-04-30T00:40:53;41.72;;;39.40;;
33644;SDS011;19986;48.190;16.366;2023-04-30T00:43:19;44.53;;;42.10;;
33644;SDS011;19986;48.190;16.366;2023-04-30T00:45:45;46.55;;;43.85;;
33644;SDS011;19986;48.190;16.366;2023-04-30T00:48:11;47.05;;;44.35;;
33644;SDS011;19986;48.190;16.366;2023-04-30T00:50:37;46.80;;;44.30;;
33644;SDS011;19986;48.190;16.366;2023-04-30T00:53:04;45.65;;;43.08;;
33644;SDS011;19986;48.190;16.366;2023-04-30T00:55:30;46.08;;;43.47;;
33644;SDS011;19986;48.190;16.366;2023-04-30T00:57:56;48.30;;;45.53;;
33644;SDS011;19986;48.190;16.366;2023-04-30T01:00:23;44.42;;;41.92;;
33644;SDS011;19986;48.190;16.366;2023-04-30T01:02:49;45.17;;;42.47;;
33644;SDS011;19986;48.190;16.366;2023-04-30T01:05:15;46.05;;;43.45;;
33644;SDS011;19986;48.190;16.366;2023-04-30T01:07:41;48.15;;;45.38;;
33644;SDS011;19986;48.190;16.366;2023-04-30T01:10:09;47.65;;;44.85;;
33644;SDS011;19986;48.190;16.366;2023-04-30T01:18:02;44.45;;;42.05;;
33644;SDS011;19986;48.190;16.366;2023-04-30T01:20:36;46.65;;;44.00;;
33644;SDS011;19986;48.190;16.366;2023-04-30T01:23:18;47.60;;;45.00;;
33644;SDS011;19986;48.190;16.366;2023-04-30T01:28:36;45.35;;;42.83;;
33644;SDS011;19986;48.190;16.366;2023-04-30T01:31:10;44.75;;;42.13;;
33644;SDS011;19986;48.190;16.366;2023-04-30T01:33:39;45.88;;;43.35;;
33644;SDS011;19986;48.190;16.366;2023-04-30T01:38:59;46.83;;;44.08;;
33644;SDS011;19986;48.190;16.366;2023-04-30T01:44:42;47.03;;;44.03;;
33644;SDS011;19986;48.190;16.366;2023-04-30T01:49:48;50.35;;;47.35;;
33644;SDS011;19986;48.190;16.366;2023-04-30T01:52:38;49.85;;;46.95;;
33644;SDS011;19986;48.190;16.366;2023-04-30T01:55:19;49.05;;;46.03;;
33644;SDS011;19986;48.190;16.366;2023-04-30T02:00:22;49.10;;;46.15;;
33644;SDS011;19986;48.190;16.366;2023-04-30T02:02:48;51.60;;;48.30;;
33644;SDS011;19986;48.190;16.366;2023-04-30T02:05:14;52.00;;;48.75;;
33644;SDS011;19986;48.190;16.366;2023-04-30T02:07:40;49.53;;;46.42;;
33644;SDS011;19986;48.190;16.366;2023-04-30T02:10:09;49.17;;;45.90;;
33644;SDS011;19986;48.190;16.366;2023-04-30T02:12:39;50.75;;;47.50;;
33644;SDS011;19986;48.190;16.366;2023-04-30T02:15:06;50.55;;;47.45;;
33644;SDS011;19986;48.190;16.366;2023-04-30T02:17:33;50.78;;;47.53;;
33644;SDS011;19986;48.190;16.366;2023-04-30T02:20:00;50.22;;;47.03;;
33644;SDS011;19986;48.190;16.366;2023-04-30T02:22:26;52.05;;;48.78;;
33644;SDS011;19986;48.190;16.366;2023-04-30T02:24:52;49.30;;;46.10;;
33644;SDS011;19986;48.190;16.366;2023-04-30T02:27:20;49.78;;;46.72;;
33644;SDS011;19986;48.190;16.366;2023-04-30T02:29:47;50.95;;;47.70;;
33644;SDS011;19986;48.190;16.366;2023-04-30T02:32:13;51.08;;;47.85;;
33644;SDS011;19986;48.190;16.366;2023-04-30T02:34:40;52.28;;;49.10;;
33644;SDS011;19986;48.190;16.366;2023-04-30T02:37:07;47.70;;;44.70;;
33644;SDS011;19986;48.190;16.366;2023-04-30T02:39:39;52.10;;;48.90;;
33644;SDS011;19986;48.190;16.366;2023-04-30T02:42:06;52.15;;;48.85;;
33644;SDS011;19986;48.190;16.366;2023-04-30T02:44:32;50.80;;;47.63;;
33644;SDS011;19986;48.190;16.366;2023-04-30T02:46:59;54.90;;;51.50;;
33644;SDS011;19986;48.190;16.366;2023-04-30T02:49:25;52.95;;;49.70;;
33644;SDS011;19986;48.190;16.366;2023-04-30T02:51:51;52.47;;;49.17;;
33644;SDS011;19986;48.190;16.366;2023-04-30T02:54:18;51.65;;;48.42;;
33644;SDS011;19986;48.190;16.366;2023-04-30T02:56:44;50.95;;;47.65;;
33644;SDS011;19986;48.190;16.366;2023-04-30T02:59:11;52.58;;;49.17;;
33644;SDS011;19986;48.190;16.366;2023-04-30T03:01:37;51.35;;;48.22;;
33644;SDS011;19986;48.190;16.366;2023-04-30T03:04:03;51.85;;;48.55;;
33644;SDS011;19986;48.190;16.366;2023-04-30T03:06:29;51.78;;;48.65;;
33644;SDS011;19986;48.190;16.366;2023-04-30T03:08:56;52.22;;;49.03;;
33644;SDS011;19986;48.190;16.366;2023-04-30T03:11:21;51.85;;;48.45;;
33644;SDS011;19986;48.190;16.366;2023-04-30T03:13:47;52.78;;;49.47;;
33644;SDS011;19986;48.190;16.366;2023-04-30T03:16:16;51.67;;;48.38;;
33644;SDS011;19986;48.190;16.366;2023-04-30T03:18:47;49.50;;;46.42;;
33644;SDS011;19986;48.190;16.366;2023-04-30T03:21:14;51.65;;;48.40;;
33644;SDS011;19986;48.190;16.366;2023-04-30T03:23:40;53.50;;;50.03;;
33644;SDS011;19986;48.190;16.366;2023-04-30T03:26:06;52.92;;;49.67;;
33644;SDS011;19986;48.190;16.366;2023-04-30T03:28:32;52.15;;;48.75;;
33644;SDS011;19986;48.190;16.366;2023-04-30T03:31:00;50.88;;;47.70;;
33644;SDS011;19986;48.190;16.366;2023-04-30T03:33:33;54.47;;;51.08;;
33644;SDS011;19986;48.190;16.366;2023-04-30T03:35:59;53.42;;;50.03;;
33644;SDS011;19986;48.190;16.366;2023-04-30T03:38:25;53.33;;;49.95;;
33644;SDS011;19986;48.190;16.366;2023-04-30T03:40:52;53.55;;;49.95;;
33644;SDS011;19986;48.190;16.366;2023-04-30T03:43:17;49.05;;;46.03;;
33644;SDS011;19986;48.190;16.366;2023-04-30T03:45:43;52.03;;;48.75;;
33644;SDS011;19986;48.190;16.366;2023-04-30T03:48:09;52.72;;;49.40;;
33644;SDS011;19986;48.190;16.366;2023-04-30T03:50:35;51.72;;;48.25;;
33644;SDS011;19986;48.190;16.366;2023-04-30T03:53:01;50.05;;;46.85;;
33644;SDS011;19986;48.190;16.366;2023-04-30T03:55:27;53.45;;;50.15;;
33644;SDS011;19986;48.190;16.366;2023-04-30T03:57:53;51.45;;;48.17;;
33644;SDS011;19986;48.190;16.366;2023-04-30T04:00:19;49.58;;;46.42;;
33644;SDS011;19986;48.190;16.366;2023-04-30T04:02:45;51.65;;;48.47;;
33644;SDS011;19986;48.190;16.366;2023-04-30T04:05:12;52.15;;;48.75;;
33644;SDS011;19986;48.190;16.366;2023-04-30T04:07:37;52.42;;;49.22;;
33644;SDS011;19986;48.190;16.366;2023-04-30T04:10:03;53.17;;;49.83;;
33644;SDS011;19986;48.190;16.366;2023-04-30T04:12:30;51.85;;;48.75;;
33644;SDS011;19986;48.190;16.366;2023-04-30T04:14:55;50.72;;;47.67;;
33644;SDS011;19986;48.190;16.366;2023-04-30T04:17:21;51.47;;;48.10;;
33644;SDS011;19986;48.190;16.366;2023-04-30T04:19:47;51.03;;;47.85;;
33644;SDS011;19986;48.190;16.366;2023-04-30T04:22:13;52.88;;;49.58;;
33644;SDS011;19986;48.190;16.366;2023-04-30T04:24:39;49.28;;;46.20;;
33644;SDS011;19986;48.190;16.366;2023-04-30T04:27:04;49.47;;;46.30;;
33644;SDS011;19986;48.190;16.366;2023-04-30T04:29:31;49.50;;;46.50;;
33644;SDS011;19986;48.190;16.366;2023-04-30T04:31:57;51.42;;;48.42;;
33644;SDS011;19986;48.190;16.366;2023-04-30T04:34:26;49.38;;;46.30;;
33644;SDS011;19986;48.190;16.366;2023-04-30T04:36:52;49.63;;;46.28;;
33644;SDS011;19986;48.190;16.366;2023-04-30T04:39:18;50.20;;;47.10;;
33644;SDS011;19986;48.190;16.366;2023-04-30T04:41:44;50.50;;;47.33;;
33644;SDS011;19986;48.190;16.366;2023-04-30T04:44:10;47.80;;;44.90;;
33644;SDS011;19986;48.190;16.366;2023-04-30T04:46:35;50.13;;;46.67;;
33644;SDS011;19986;48.190;16.366;2023-04-30T04:49:06;49.08;;;45.78;;
33644;SDS011;19986;48.190;16.366;2023-04-30T04:51:32;48.88;;;46.03;;
33644;SDS011;19986;48.190;16.366;2023-04-30T04:53:58;48.15;;;45.35;;
33644;SDS011;19986;48.190;16.366;2023-04-30T04:56:24;49.53;;;46.33;;
33644;SDS011;19986;48.190;16.366;2023-04-30T04:58:50;49.08;;;46.15;;
33644;SDS011;19986;48.190;16.366;2023-04-30T05:01:17;47.70;;;44.60;;
33644;SDS011;19986;48.190;16.366;2023-04-30T05:03:43;50.67;;;47.63;;
33644;SDS011;19986;48.190;16.366;2023-04-30T05:06:08;48.05;;;45.03;;
33644;SDS011;19986;48.190;16.366;2023-04-30T05:08:34;49.20;;;46.30;;
33644;SDS011;19986;48.190;16.366;2023-04-30T05:11:00;48.67;;;45.75;;
33644;SDS011;19986;48.190;16.366;2023-04-30T05:13:26;48.08;;;45.17;;
33644;SDS011;19986;48.190;16.366;2023-04-30T05:15:52;48.55;;;45.75;;
33644;SDS011;19986;48.190;16.366;2023-04-30T05:18:18;50.53;;;47.50;;
33644;SDS011;19986;48.190;16.366;2023-04-30T05:20:44;49.95;;;46.85;;
33644;SDS011;19986;48.190;16.366;2023-04-30T05:23:10;49.47;;;46.17;;
33644;SDS011;19986;48.190;16.366;2023-04-30T05:25:36;49.88;;;46.88;;
33644;SDS011;19986;48.190;16.366;2023-04-30T05:28:03;48.53;;;45.58;;
33644;SDS011;19986;48.190;16.366;2023-04-30T05:30:29;49.47;;;46.45;;
33644;SDS011;19986;48.190;16.366;2023-04-30T05:32:56;49.17;;;46.10;;
33644;SDS011;19986;48.190;16.366;2023-04-30T05:35:21;47.08;;;44.25;;
33644;SDS011;19986;48.190;16.366;2023-04-30T05:37:48;51.28;;;48.28;;
33644;SDS011;19986;48.190;16.366;2023-04-30T05:40:14;47.55;;;44.55;;
33644;SDS011;19986;48.190;16.366;2023-04-30T05:42:40;47.08;;;44.38;;
33644;SDS011;19986;48.190;16.366;2023-04-30T05:45:08;46.67;;;43.78;;
33644;SDS011;19986;48.190;16.366;2023-04-30T05:47:36;47.53;;;44.58;;
33644;SDS011;19986;48.190;16.366;2023-04-30T05:50:02;49.88;;;46.78;;
33644;SDS011;19986;48.190;16.366;2023-04-30T05:52:28;48.08;;;45.17;;
33644;SDS011;19986;48.190;16.366;2023-04-30T05:54:54;46.47;;;43.55;;
33644;SDS011;19986;48.190;16.366;2023-04-30T05:57:20;47.90;;;45.10;;
33644;SDS011;19986;48.190;16.366;2023-04-30T05:59:46;47.78;;;44.80;;
33644;SDS011;19986;48.190;16.366;2023-04-30T06:02:12;49.03;;;46.08;;
33644;SDS011;19986;48.190;16.366;2023-04-30T06:04:38;47.45;;;44.42;;
33644;SDS011;19986;48.190;16.366;2023-04-30T06:07:04;47.13;;;44.38;;
33644;SDS011;19986;48.190;16.366;2023-04-30T06:09:30;47.58;;;44.67;;
33644;SDS011;19986;48.190;16.366;2023-04-30T06:11:56;47.03;;;44.22;;
33644;SDS011;19986;48.190;16.366;2023-04-30T06:14:22;45.85;;;43.05;;
33644;SDS011;19986;48.190;16.366;2023-04-30T06:16:48;46.80;;;44.13;;
33644;SDS011;19986;48.190;16.366;2023-04-30T06:19:14;47.25;;;44.45;;
33644;SDS011;19986;48.190;16.366;2023-04-30T06:21:40;47.30;;;44.55;;
33644;SDS011;19986;48.190;16.366;2023-04-30T06:24:08;48.00;;;45.13;;
33644;SDS011;19986;48.190;16.366;2023-04-30T06:26:34;46.53;;;43.72;;
33644;SDS011;19986;48.190;16.366;2023-04-30T06:29:00;45.22;;;42.72;;
33644;SDS011;19986;48.190;16.366;2023-04-30T06:31:25;47.13;;;44.22;;
33644;SDS011;19986;48.190;16.366;2023-04-30T06:33:52;48.22;;;45.42;;
33644;SDS011;19986;48.190;16.366;2023-04-30T06:36:17;45.97;;;43.28;;
33644;SDS011;19986;48.190;16.366;2023-04-30T06:38:44;46.67;;;43.80;;
33644;SDS011;19986;48.190;16.366;2023-04-30T06:41:11;42.65;;;40.15;;
33644;SDS011;19986;48.190;16.366;2023-04-30T06:43:37;48.58;;;45.63;;
33644;SDS011;19986;48.190;16.366;2023-04-30T06:46:03;43.13;;;40.55;;
33644;SDS011;19986;48.190;16.366;2023-04-30T06:48:30;45.38;;;42.78;;
33644;SDS011;19986;48.190;16.366;2023-04-30T06:50:56;44.65;;;42.05;;
33644;SDS011;19986;48.190;16.366;2023-04-30T06:53:23;47.40;;;44.72;;
33644;SDS011;19986;48.190;16.366;2023-04-30T06:55:49;44.90;;;42.15;;
33644;SDS011;19986;48.190;16.366;2023-04-30T06:58:15;45.03;;;42.35;;
33644;SDS011;19986;48.190;16.366;2023-04-30T07:00:42;46.85;;;44.25;;
33644;SDS011;19986;48.190;16.366;2023-04-30T07:03:08;46.30;;;43.35;;
33644;SDS011;19986;48.190;16.366;2023-04-30T07:05:34;44.38;;;41.67;;
33644;SDS011;19986;48.190;16.366;2023-04-30T07:08:00;46.63;;;43.83;;
33644;SDS011;19986;48.190;16.366;2023-04-30T07:10:27;43.70;;;41.08;;
33644;SDS011;19986;48.190;16.366;2023-04-30T07:12:54;46.17;;;43.58;;
33644;SDS011;19986;48.190;16.366;2023-04-30T07:15:20;46.03;;;43.22;;
33644;SDS011;19986;48.190;16.366;2023-04-30T07:17:46;46.08;;;43.20;;
33644;SDS011;19986;48.190;16.366;2023-04-30T07:20:12;45.08;;;42.58;;
33644;SDS011;19986;48.190;16.366;2023-04-30T07:22:39;45.17;;;42.67;;
33644;SDS011;19986;48.190;16.366;2023-04-30T07:25:08;45.78;;;43.05;;
33644;SDS011;19986;48.190;16.366;2023-04-30T07:27:35;47.50;;;44.50;;
33644;SDS011;19986;48.190;16.366;2023-04-30T07:30:01;47.38;;;44.58;;
33644;SDS011;19986;48.190;16.366;2023-04-30T07:32:27;47.80;;;45.10;;
33644;SDS011;19986;48.190;16.366;2023-04-30T07:34:53;45.03;;;42.42;;
33644;SDS011;19986;48.190;16.366;2023-04-30T07:37:19;45.13;;;42.53;;
33644;SDS011;19986;48.190;16.366;2023-04-30T07:39:46;47.50;;;44.80;;
33644;SDS011;19986;48.190;16.366;2023-04-30T07:42:11;45.88;;;43.05;;
33644;SDS011;19986;48.190;16.366;2023-04-30T07:44:38;44.75;;;42.25;;
33644;SDS011;19986;48.190;16.366;2023-04-30T07:47:05;46.25;;;43.67;;
33644;SDS011;19986;48.190;16.366;2023-04-30T07:49:31;43.28;;;40.58;;
33644;SDS011;19986;48.190;16.366;2023-04-30T07:51:57;45.72;;;42.83;;
33644;SDS011;19986;48.190;16.366;2023-04-30T07:54:25;44.13;;;41.53;;
33644;SDS011;19986;48.190;16.366;2023-04-30T07:56:51;46.38;;;43.47;;
33644;SDS011;19986;48.190;16.366;2023-04-30T07:59:17;45.20;;;42.47;;
33644;SDS011;19986;48.190;16.366;2023-04-30T08:01:43;45.97;;;43.28;;
33644;SDS011;19986;48.190;16.366;2023-04-30T08:04:09;45.85;;;43.28;;
33644;SDS011;19986;48.190;16.366;2023-04-30T08:06:35;44.85;;;42.15;;
33644;SDS011;19986;48.190;16.366;2023-04-30T08:09:01;43.38;;;40.88;;
33644;SDS011;19986;48.190;16.366;2023-04-30T08:11:27;43.97;;;41.50;;
33644;SDS011;19986;48.190;16.366;2023-04-30T08:13:53;46.15;;;43.60;;
33644;SDS011;19986;48.190;16.366;2023-04-30T08:16:19;44.88;;;42.20;;
33644;SDS011;19986;48.190;16.366;2023-04-30T08:18:45;43.45;;;41.05;;
33644;SDS011;19986;48.190;16.366;2023-04-30T08:21:13;44.67;;;41.97;;
33644;SDS011;19986;48.190;16.366;2023-04-30T08:23:40;43.75;;;40.92;;
33644;SDS011;19986;48.190;16.366;2023-04-30T08:26:06;42.53;;;40.13;;
33644;SDS011;19986;48.190;16.366;2023-04-30T08:28:31;42.05;;;39.65;;
33644;SDS011;19986;48.190;16.366;2023-04-30T08:30:57;41.60;;;39.13;;
33644;SDS011;19986;48.190;16.366;2023-04-30T08:33:23;44.08;;;41.47;;
33644;SDS011;19986;48.190;16.366;2023-04-30T08:35:49;43.20;;;40.72;;
33644;SDS011;19986;48.190;16.366;2023-04-30T08:38:15;44.17;;;41.38;;
33644;SDS011;19986;48.190;16.366;2023-04-30T08:40:41;45.10;;;42.33;;
33644;SDS011;19986;48.190;16.366;2023-04-30T08:43:13;42.00;;;39.60;;
33644;SDS011;19986;48.190;16.366;2023-04-30T08:45:39;43.35;;;40.42;;
33644;SDS011;19986;48.190;16.366;2023-04-30T08:48:08;42.47;;;39.92;;
33644;SDS011;19986;48.190;16.366;2023-04-30T08:50:39;42.08;;;39.67;;
33644;SDS011;19986;48.190;16.366;2023-04-30T08:53:06;42.42;;;39.83;;
33644;SDS011;19986;48.190;16.366;2023-04-30T08:55:34;43.13;;;40.30;;
33644;SDS011;19986;48.190;16.366;2023-04-30T08:58:03;43.53;;;41.03;;
33644;SDS011;19986;48.190;16.366;2023-04-30T09:00:31;44.38;;;41.75;;
33644;SDS011;19986;48.190;16.366;2023-04-30T09:02:57;44.60;;;41.88;;
33644;SDS011;19986;48.190;16.366;2023-04-30T09:05:25;44.42;;;41.90;;
33644;SDS011;19986;48.190;16.366;2023-04-30T09:07:50;44.40;;;41.80;;
33644;SDS011;19986;48.190;16.366;2023-04-30T09:10:20;42.33;;;39.65;;
33644;SDS011;19986;48.190;16.366;2023-04-30T09:13:05;44.15;;;41.60;;
33644;SDS011;19986;48.190;16.366;2023-04-30T09:15:33;43.78;;;41.22;;
33644;SDS011;19986;48.190;16.366;2023-04-30T09:18:14;45.72;;;42.80;;
33644;SDS011;19986;48.190;16.366;2023-04-30T09:23:21;44.53;;;41.92;;
33644;SDS011;19986;48.190;16.366;2023-04-30T09:25:47;42.08;;;39.67;;
33644;SDS011;19986;48.190;16.366;2023-04-30T09:28:13;43.60;;;41.05;;
33644;SDS011;19986;48.190;16.366;2023-04-30T09:30:40;40.97;;;38.58;;
33644;SDS011;19986;48.190;16.366;2023-04-30T09:33:06;44.42;;;41.92;;
33644;SDS011;19986;48.190;16.366;2023-04-30T09:35:34;44.35;;;41.53;;
33644;SDS011;19986;48.190;16.366;2023-04-30T09:38:03;43.70;;;41.13;;
33644;SDS011;19986;48.190;16.366;2023-04-30T09:40:37;43.08;;;40.63;;
33644;SDS011;19986;48.190;16.366;2023-04-30T09:43:07;42.72;;;40.22;;
33644;SDS011;19986;48.190;16.366;2023-04-30T09:45:44;42.75;;;40.13;;
33644;SDS011;19986;48.190;16.366;2023-04-30T09:48:23;43.95;;;41.25;;
33644;SDS011;19986;48.190;16.366;2023-04-30T09:50:52;42.28;;;39.58;;
33644;SDS011;19986;48.190;16.366;2023-04-30T09:53:18;40.35;;;38.00;;
33644;SDS011;19986;48.190;16.366;2023-04-30T09:55:48;43.10;;;40.40;;
33644;SDS011;19986;48.190;16.366;2023-04-30T09:58:16;37.50;;;35.20;;
33644;SDS011;19986;48.190;16.366;2023-04-30T10:00:44;38.15;;;35.88;;
33644;SDS011;19986;48.190;16.366;2023-04-30T10:03:12;40.25;;;37.92;;
33644;SDS011;19986;48.190;16.366;2023-04-30T10:05:46;41.83;;;39.20;;
33644;SDS011;19986;48.190;16.366;2023-04-30T10:11:04;38.38;;;36.28;;
33644;SDS011;19986;48.190;16.366;2023-04-30T10:18:48;39.40;;;37.20;;
33644;SDS011;19986;48.190;16.366;2023-04-30T10:21:16;37.97;;;35.50;;
33644;SDS011;19986;48.190;16.366;2023-04-30T10:23:45;36.95;;;34.92;;
33644;SDS011;19986;48.190;16.366;2023-04-30T10:26:12;37.15;;;35.15;;
33644;SDS011;19986;48.190;16.366;2023-04-30T10:28:42;37.97;;;35.80;;
33644;SDS011;19986;48.190;16.366;2023-04-30T10:31:09;37.45;;;35.15;;
33644;SDS011;19986;48.190;16.366;2023-04-30T10:36:16;34.03;;;32.03;;
33644;SDS011;19986;48.190;16.366;2023-04-30T10:38:52;36.10;;;34.10;;
33644;SDS011;19986;48.190;16.366;2023-04-30T10:41:18;36.35;;;34.35;;
33644;SDS011;19986;48.190;16.366;2023-04-30T10:43:45;33.63;;;31.80;;
33644;SDS011;19986;48.190;16.366;2023-04-30T10:46:20;35.33;;;33.38;;
33644;SDS011;19986;48.190;16.366;2023-04-30T10:48:48;35.53;;;33.47;;
33644;SDS011;19986;48.190;16.366;2023-04-30T10:51:14;40.15;;;37.50;;
33644;SDS011;19986;48.190;16.366;2023-04-30T10:53:40;35.72;;;33.53;;
33644;SDS011;19986;48.190;16.366;2023-04-30T10:56:08;36.17;;;34.13;;
33644;SDS011;19986;48.190;16.366;2023-04-30T10:58:38;35.17;;;33.17;;
33644;SDS011;19986;48.190;16.366;2023-04-30T11:03:30;35.72;;;33.78;;
33644;SDS011;19986;48.190;16.366;2023-04-30T11:06:06;39.60;;;37.40;;
33644;SDS011;19986;48.190;16.366;2023-04-30T11:08:42;38.20;;;35.92;;
33644;SDS011;19986;48.190;16.366;2023-04-30T11:11:10;39.75;;;37.65;;
33644;SDS011;19986;48.190;16.366;2023-04-30T11:13:39;38.78;;;36.58;;
33644;SDS011;19986;48.190;16.366;2023-04-30T11:16:08;40.05;;;37.95;;
33644;SDS011;19986;48.190;16.366;2023-04-30T11:18:39;38.38;;;36.13;;
33644;SDS011;19986;48.190;16.366;2023-04-30T11:21:07;40.15;;;37.95;;
33644;SDS011;19986;48.190;16.366;2023-04-30T11:23:34;40.33;;;38.13;;
33644;SDS011;19986;48.190;16.366;2023-04-30T11:26:00;40.05;;;37.72;;
33644;SDS011;19986;48.190;16.366;2023-04-30T11:28:26;39.20;;;36.92;;
33644;SDS011;19986;48.190;16.366;2023-04-30T11:30:53;41.28;;;38.97;;
33644;SDS011;19986;48.190;16.366;2023-04-30T11:33:21;41.78;;;39.35;;
33644;SDS011;19986;48.190;16.366;2023-04-30T11:35:51;40.83;;;38.47;;
33644;SDS011;19986;48.190;16.366;2023-04-30T11:38:21;42.65;;;40.08;;
33644;SDS011;19986;48.190;16.366;2023-04-30T11:40:51;41.50;;;39.10;;
33644;SDS011;19986;48.190;16.366;2023-04-30T11:48:46;42.42;;;40.03;;
33644;SDS011;19986;48.190;16.366;2023-04-30T11:53:44;41.72;;;38.97;;
33644;SDS011;19986;48.190;16.366;2023-04-30T11:56:11;41.38;;;39.13;;
33644;SDS011;19986;48.190;16.366;2023-04-30T11:58:37;44.42;;;41.83;;
33644;SDS011;19986;48.190;16.366;2023-04-30T12:01:04;44.25;;;41.50;;
33644;SDS011;19986;48.190;16.366;2023-04-30T12:03:39;41.83;;;39.53;;
33644;SDS011;19986;48.190;16.366;2023-04-30T12:06:09;41.53;;;39.03;;
33644;SDS011;19986;48.190;16.366;2023-04-30T12:08:45;43.83;;;41.22;;
33644;SDS011;19986;48.190;16.366;2023-04-30T12:11:18;44.13;;;41.45;;
33644;SDS011;19986;48.190;16.366;2023-04-30T12:13:50;41.88;;;39.58;;
33644;SDS011;19986;48.190;16.366;2023-04-30T12:16:20;43.65;;;41.05;;
33644;SDS011;19986;48.190;16.366;2023-04-30T12:18:48;41.80;;;39.40;;
33644;SDS011;19986;48.190;16.366;2023-04-30T12:21:15;42.40;;;40.10;;
33644;SDS011;19986;48.190;16.366;2023-04-30T12:23:42;42.92;;;40.42;;
33644;SDS011;19986;48.190;16.366;2023-04-30T12:26:09;42.47;;;40.05;;
33644;SDS011;19986;48.190;16.366;2023-04-30T12:28:35;42.80;;;40.30;;
33644;SDS011;19986;48.190;16.366;2023-04-30T12:31:01;43.63;;;41.20;;
33644;SDS011;19986;48.190;16.366;2023-04-30T12:33:30;43.38;;;40.88;;
33644;SDS011;19986;48.190;16.366;2023-04-30T12:35:56;40.58;;;38.33;;
33644;SDS011;19986;48.190;16.366;2023-04-30T12:38:25;40.67;;;38.38;;
33644;SDS011;19986;48.190;16.366;2023-04-30T12:40:51;38.28;;;36.05;;
33644;SDS011;19986;48.190;16.366;2023-04-30T12:43:17;39.38;;;37.28;;
33644;SDS011;19986;48.190;16.366;2023-04-30T12:48:20;40.63;;;38.35;;
33644;SDS011;19986;48.190;16.366;2023-04-30T12:51:09;42.67;;;40.38;;
33644;SDS011;19986;48.190;16.366;2023-04-30T12:53:43;40.20;;;37.88;;
33644;SDS011;19986;48.190;16.366;2023-04-30T12:56:11;40.53;;;38.42;;
33644;SDS011;19986;48.190;16.366;2023-04-30T12:58:39;40.67;;;38.28;;
33644;SDS011;19986;48.190;16.366;2023-04-30T13:01:16;41.05;;;38.72;;
33644;SDS011;19986;48.190;16.366;2023-04-30T13:03:46;43.65;;;41.22;;
33644;SDS011;19986;48.190;16.366;2023-04-30T13:06:12;42.38;;;39.97;;
33644;SDS011;19986;48.190;16.366;2023-04-30T13:08:38;44.47;;;42.05;;
33644;SDS011;19986;48.190;16.366;2023-04-30T13:11:05;44.35;;;41.85;;
33644;SDS011;19986;48.190;16.366;2023-04-30T13:13:31;42.80;;;40.20;;
33644;SDS011;19986;48.190;16.366;2023-04-30T13:15:58;43.88;;;41.45;;
33644;SDS011;19986;48.190;16.366;2023-04-30T13:18:24;41.90;;;39.65;;
33644;SDS011;19986;48.190;16.366;2023-04-30T13:20:51;43.60;;;41.28;;
33644;SDS011;19986;48.190;16.366;2023-04-30T13:23:17;43.33;;;41.00;;
33644;SDS011;19986;48.190;16.366;2023-04-30T13:25:43;42.10;;;39.53;;
33644;SDS011;19986;48.190;16.366;2023-04-30T13:28:09;40.70;;;38.50;;
33644;SDS011;19986;48.190;16.366;2023-04-30T13:30:35;42.53;;;40.05;;
33644;SDS011;19986;48.190;16.366;2023-04-30T13:33:01;38.70;;;36.42;;
33644;SDS011;19986;48.190;16.366;2023-04-30T13:35:27;40.60;;;38.53;;
33644;SDS011;19986;48.190;16.366;2023-04-30T13:37:54;40.47;;;38.38;;
33644;SDS011;19986;48.190;16.366;2023-04-30T13:40:20;42.70;;;40.40;;
33644;SDS011;19986;48.190;16.366;2023-04-30T13:42:46;40.05;;;37.85;;
33644;SDS011;19986;48.190;16.366;2023-04-30T13:45:13;43.35;;;40.88;;
33644;SDS011;19986;48.190;16.366;2023-04-30T13:47:38;42.88;;;40.45;;
33644;SDS011;19986;48.190;16.366;2023-04-30T13:50:05;39.83;;;37.55;;
33644;SDS011;19986;48.190;16.366;2023-04-30T13:52:32;41.10;;;38.70;;
33644;SDS011;19986;48.190;16.366;2023-04-30T13:54:58;39.00;;;36.90;;
33644;SDS011;19986;48.190;16.366;2023-04-30T13:57:25;38.20;;;36.08;;
33644;SDS011;19986;48.190;16.366;2023-04-30T13:59:50;40.60;;;38.22;;
33644;SDS011;19986;48.190;16.366;2023-04-30T14:02:16;38.95;;;36.90;;
33644;SDS011;19986;48.190;16.366;2023-04-30T14:04:42;40.55;;;38.30;;
33644;SDS011;19986;48.190;16.366;2023-04-30T14:07:08;40.67;;;38.50;;
33644;SDS011;19986;48.190;16.366;2023-04-30T14:09:35;39.20;;;37.03;;
33644;SDS011;19986;48.190;16.366;2023-04-30T14:12:01;38.45;;;36.17;;
33644;SDS011;19986;48.190;16.366;2023-04-30T14:14:28;38.60;;;36.47;;
33644;SDS011;19986;48.190;16.366;2023-04-30T14:16:53;39.03;;;36.78;;
33644;SDS011;19986;48.190;16.366;2023-04-30T14:19:20;38.13;;;36.10;;
33644;SDS011;19986;48.190;16.366;2023-04-30T14:21:47;37.28;;;35.38;;
33644;SDS011;19986;48.190;16.366;2023-04-30T14:24:13;39.50;;;37.22;;
33644;SDS011;19986;48.190;16.366;2023-04-30T14:26:43;38.42;;;36.53;;
33644;SDS011;19986;48.190;16.366;2023-04-30T14:29:10;39.42;;;37.20;;
33644;SDS011;19986;48.190;16.366;2023-04-30T14:31:36;37.03;;;35.13;;
33644;SDS011;19986;48.190;16.366;2023-04-30T14:34:02;36.28;;;34.38;;
33644;SDS011;19986;48.190;16.366;2023-04-30T14:36:28;39.83;;;37.63;;
33644;SDS011;19986;48.190;16.366;2023-04-30T14:38:54;39.20;;;37.10;;
33644;SDS011;19986;48.190;16.366;2023-04-30T14:41:19;42.47;;;40.22;;
33644;SDS011;19986;48.190;16.366;2023-04-30T14:43:46;39.50;;;37.25;;
33644;SDS011;19986;48.190;16.366;2023-04-30T14:46:12;40.72;;;38.63;;
33644;SDS011;19986;48.190;16.366;2023-04-30T14:48:38;39.47;;;37.45;;
33644;SDS011;19986;48.190;16.366;2023-04-30T14:51:04;42.58;;;40.35;;
33644;SDS011;19986;48.190;16.366;2023-04-30T14:53:29;40.65;;;38.45;;
33644;SDS011;19986;48.190;16.366;2023-04-30T14:55:59;40.35;;;38.15;;